Aérodrome :
LOGIN :

S'inscrire | Disclaimer

   EN    FR    IT 

 










Légende :    VFR   VFR Marginal   IFR   IFR Intensif   IFR Très Intensif
Visi : 
Plafond : 
>= 8 km
>= 3000ft
5 à 8 km
1000 à 3000 ft
1500m à 5 km
500 à 1000 ft
800 à 1500m
200 à 500 ft
< 800m
< 200 ft
Symboles :   Orages  Brouillard  Fortes neiges  Fortes précipitations  Vent > 20 kt
SIGMETs :   Divers  Orages  Givrage  Turbulence  Onde Orograph.  Cendres Volcan.






- Altitude de l'aérodrome : 138 ft
- Code IATA : BIO


LEBB - Bilbao

DERNIER METAR :
  • 041100Z 25010KT 210V290 9999 SCT046 10/02 Q0993 TEMPO 3000 RA

METARs EXPIRÉS :
  • 041030Z 22009KT 170V270 9999 SCT050 09/02 Q0993 TEMPO 3000 SHRA SCT030TCU
  • 041000Z 23008KT 170V260 9999 FEW044 SCT060 09/02 Q0993 NOSIG
  • 040930Z 24006KT 200V280 9999 FEW044 SCT060 09/02 Q0993 NOSIG
  • 040900Z 24007KT 200V280 9999 FEW044 09/01 Q0993 NOSIG
  • 040830Z 25008KT 210V290 9999 FEW044 08/01 Q0993 NOSIG

TAF TAF LEBB
Valide du 04 à 06h jusqu'au 05 à 06h UTC


040500Z 0406/0506 25009KT 9999 SCT025 BKN040 TX10/0414Z TN04/0506Z
TEMPO 0406/0418 25015G25KT
TEMPO 0406/0408 3000 RA SHRA BKN010 SCT025TCU
PROB40
TEMPO 0406/0408 3000 TS SHRAGR BKN010 SCT025CB
PROB30
TEMPO 0408/0421 3000 RA TSRA BKN010 SCT025TCU SCT030CB



MET'MAP, la Météo Aéronautique d'un coup d'oeil ! - Copyright ORBIFLY Décembre 2007 - Disclaimer

ORBIFLY MET'MAP TEAM :

Programmation & Développement : Alexandra Zaïnal
Sur une idée originale de : Baudouin d'Aumeries
Assistance à la programmation : Marc-Olivier Méhu
Soutien technique & logistique : Manuel Goepfert

Contact : metmap@orbifly.com




SOURCES & CREDITS :

   NOAA